LH1525 EDLW-EDLW

Flight info

Callsign LH1525
Flight time 0h 12m
Altitude 6000
Route DOMEG3Q DOMEG DOMEG2A
Aircraft TBM9/L-SDFGRWY/S

Departure

Time 2026-04-29 10:11
Airport Dortmund Airport (EDLW)

Arrival

Time 2026-04-29 10:23
Airport Dortmund Airport (EDLW)
Time Latitude Longitude Altitude Speed Heading
2026-04-29 10:02 51.51236 7.60522 444 ft 0 kts 104°
2026-04-29 10:04 51.51235 7.60527 444 ft 3 kts 86°
2026-04-29 10:04 51.51276 7.60559 438 ft 0 kts 24°
2026-04-29 10:05 51.51284 7.60546 444 ft 6 kts 237°
2026-04-29 10:05 51.51262 7.60486 437 ft 1 kts 240°
2026-04-29 10:05 51.51250 7.60453 444 ft 8 kts 237°
2026-04-29 10:05 51.51202 7.60331 439 ft 17 kts 247°
2026-04-29 10:06 51.51164 7.60175 442 ft 13 kts 329°
2026-04-29 10:06 51.51238 7.60284 439 ft 20 kts 61°
2026-04-29 10:06 51.51316 7.60509 437 ft 26 kts 57°
2026-04-29 10:06 51.51407 7.60752 426 ft 14 kts 64°
2026-04-29 10:07 51.51429 7.60825 425 ft 11 kts 64°
2026-04-29 10:07 51.51478 7.60965 420 ft 18 kts 59°
2026-04-29 10:07 51.51519 7.61062 429 ft 9 kts 18°
2026-04-29 10:07 51.51570 7.60988 426 ft 9 kts 236°
2026-04-29 10:08 51.51518 7.60851 413 ft 21 kts 240°
2026-04-29 10:08 51.51427 7.60591 414 ft 24 kts 241°
2026-04-29 10:08 51.51364 7.60408 412 ft 9 kts 246°
2026-04-29 10:08 51.51362 7.60395 414 ft 0 kts 256°
2026-04-29 10:09 51.51359 7.60360 416 ft 8 kts 267°
2026-04-29 10:09 51.51419 7.60257 412 ft 19 kts 335°
2026-04-29 10:10 51.51490 7.60248 407 ft 7 kts 60°
2026-04-29 10:10 51.51601 7.60601 409 ft 69 kts 60°
2026-04-29 10:10 51.51902 7.61405 683 ft 98 kts 63°
2026-04-29 10:10 51.52260 7.62466 1015 ft 131 kts 60°
2026-04-29 10:11 51.53073 7.63283 1427 ft 147 kts 14°
2026-04-29 10:11 51.54007 7.62971 2061 ft 141 kts 334°
2026-04-29 10:11 51.54756 7.61816 2128 ft 163 kts 311°
2026-04-29 10:11 51.55318 7.60130 2299 ft 176 kts 301°
2026-04-29 10:12 51.55569 7.58184 2347 ft 187 kts 263°
2026-04-29 10:12 51.55130 7.56314 2550 ft 182 kts 245°
2026-04-29 10:12 51.54631 7.54386 2395 ft 183 kts 248°
2026-04-29 10:12 51.54212 7.52623 2199 ft 159 kts 249°
2026-04-29 10:13 51.53572 7.51334 1882 ft 154 kts 200°
2026-04-29 10:13 51.52517 7.50991 1663 ft 153 kts 181°
2026-04-29 10:13 51.51511 7.50939 1406 ft 135 kts 162°
2026-04-29 10:13 51.50734 7.51628 1049 ft 126 kts 141°
2026-04-29 10:14 51.50358 7.52232 999 ft 109 kts 114°
2026-04-29 10:14 51.50260 7.53974 825 ft 126 kts 88°
2026-04-29 10:14 51.50290 7.54951 701 ft 134 kts 78°
2026-04-29 10:14 51.50749 7.56471 756 ft 99 kts 81°
2026-04-29 10:15 51.50838 7.57392 665 ft 81 kts 80°
2026-04-29 10:15 51.50942 7.58295 522 ft 76 kts 77°
2026-04-29 10:15 51.51052 7.58810 504 ft 70 kts 74°
2026-04-29 10:15 51.51242 7.59523 471 ft 70 kts 63°
2026-04-29 10:16 51.51498 7.60257 424 ft 79 kts 65°
2026-04-29 10:16 51.51759 7.61033 411 ft 78 kts 67°
2026-04-29 10:16 51.52007 7.61797 600 ft 76 kts 59°
2026-04-29 10:16 51.52566 7.61978 858 ft 88 kts 352°
2026-04-29 10:17 51.53187 7.61634 1015 ft 104 kts 344°
2026-04-29 10:17 51.53588 7.60547 1059 ft 130 kts 273°
2026-04-29 10:17 51.53370 7.59176 1197 ft 127 kts 248°
2026-04-29 10:17 51.53008 7.57922 1208 ft 124 kts 242°
2026-04-29 10:18 51.52549 7.56764 1209 ft 124 kts 217°
2026-04-29 10:18 51.51806 7.56424 1260 ft 109 kts 174°
2026-04-29 10:18 51.51106 7.56484 882 ft 92 kts 152°
2026-04-29 10:18 51.50849 7.57113 704 ft 59 kts 82°
2026-04-29 10:19 51.50951 7.57928 643 ft 85 kts 78°
2026-04-29 10:19 51.51078 7.58927 590 ft 94 kts 77°
2026-04-29 10:19 51.51370 7.59908 478 ft 99 kts 63°
2026-04-29 10:19 51.51697 7.60848 418 ft 91 kts 65°
2026-04-29 10:20 51.51993 7.61707 413 ft 86 kts 65°
2026-04-29 10:20 51.52260 7.62502 527 ft 80 kts 60°
2026-04-29 10:20 51.52837 7.62705 617 ft 108 kts 348°
2026-04-29 10:20 51.53446 7.61877 438 ft 167 kts 258°
2026-04-29 10:21 51.53021 7.60174 858 ft 177 kts 248°
2026-04-29 10:21 51.52542 7.58350 1045 ft 175 kts 248°
2026-04-29 10:21 51.52009 7.56620 1177 ft 161 kts 227°
2026-04-29 10:21 51.51129 7.55755 1235 ft 143 kts 186°
2026-04-29 10:22 51.50226 7.56086 1159 ft 132 kts 135°
2026-04-29 10:22 51.50164 7.57314 923 ft 132 kts 55°
2026-04-29 10:22 51.50791 7.58440 609 ft 132 kts 51°
2026-04-29 10:22 51.51247 7.59514 490 ft 102 kts 64°
2026-04-29 10:23 51.51597 7.60528 415 ft 114 kts 63°
2026-04-29 10:23 51.51909 7.61470 412 ft 64 kts 62°
2026-04-29 10:23 51.52051 7.61880 411 ft 33 kts 47°
2026-04-29 10:23 51.52176 7.62198 413 ft 37 kts 60°
2026-04-29 10:24 51.52160 7.62342 414 ft 16 kts 143°
2026-04-29 10:24 51.52132 7.62369 413 ft 0 kts 163°
2026-04-29 10:25 51.52115 7.62379 412 ft 9 kts 159°
2026-04-29 10:25 51.52039 7.62339 410 ft 19 kts 234°
2026-04-29 10:25 51.51951 7.62107 412 ft 30 kts 233°
2026-04-29 10:25 51.51841 7.61787 414 ft 26 kts 243°
2026-04-29 10:26 51.51740 7.61513 427 ft 31 kts 242°
2026-04-29 10:26 51.51670 7.61302 427 ft 25 kts 241°
2026-04-29 10:26 51.51585 7.61069 425 ft 15 kts 230°
2026-04-29 10:26 51.51520 7.61057 429 ft 13 kts 199°
2026-04-29 10:27 51.51367 7.60653 435 ft 30 kts 237°
2026-04-29 10:27 51.51253 7.60329 436 ft 37 kts 241°
2026-04-29 10:27 51.51177 7.60157 441 ft 13 kts 173°
2026-04-29 10:28 51.51195 7.60300 441 ft 18 kts 59°
2026-04-29 10:28 51.51246 7.60442 438 ft 5 kts 80°
2026-04-29 10:28 51.51237 7.60512 437 ft 0 kts 109°